createdAt,value
2023-03-21T00:01:43.906Z,39.35
2023-03-21T00:04:14.969Z,40.10
2023-03-21T00:06:46.008Z,40.30
2023-03-21T00:09:17.192Z,41.58
2023-03-21T00:11:49.407Z,40.52
2023-03-21T00:14:23.152Z,39.33
2023-03-21T00:16:54.102Z,41.73
2023-03-21T00:19:26.919Z,42.75
2023-03-21T00:22:07.447Z,41.73
2023-03-21T00:24:30.768Z,42.58
2023-03-21T00:27:21.983Z,41.98
2023-03-21T00:29:34.925Z,41.88
2023-03-21T00:32:06.125Z,43.05
2023-03-21T00:34:43.710Z,42.03
2023-03-21T00:37:11.434Z,43.42
2023-03-21T00:39:42.666Z,42.23
2023-03-21T00:42:13.852Z,42.30
2023-03-21T00:44:45.932Z,42.10
2023-03-21T00:47:17.215Z,44.00
2023-03-21T00:49:48.293Z,42.70
2023-03-21T00:52:30.593Z,42.90
2023-03-21T00:54:52.259Z,42.67
2023-03-21T00:57:37.577Z,43.28
2023-03-21T00:59:56.057Z,43.98
2023-03-21T01:02:27.763Z,44.27
2023-03-21T01:04:58.854Z,42.73
2023-03-21T01:07:29.788Z,42.62
2023-03-21T01:10:01.062Z,43.60
2023-03-21T01:12:32.358Z,44.13
2023-03-21T01:15:03.522Z,43.85
2023-03-21T01:17:34.497Z,41.88
2023-03-21T01:20:07.617Z,45.08
2023-03-21T01:22:38.720Z,45.40
2023-03-21T01:25:21.953Z,45.88
2023-03-21T01:27:44.304Z,44.75
2023-03-21T01:30:21.489Z,44.33
2023-03-21T01:32:48.328Z,45.50
2023-03-21T01:35:19.620Z,43.40
2023-03-21T01:37:51.286Z,46.77
2023-03-21T01:40:24.793Z,45.33
2023-03-21T01:42:58.106Z,51.77
2023-03-21T01:46:08.146Z,45.43
2023-03-21T01:48:41.990Z,44.30
2023-03-21T01:51:17.925Z,45.48
2023-03-21T01:53:53.282Z,44.93
2023-03-21T01:56:35.839Z,43.75
2023-03-21T01:59:12.424Z,45.35
2023-03-21T02:04:15.307Z,44.65
2023-03-21T02:07:06.939Z,44.05
2023-03-21T02:09:41.491Z,42.27
2023-03-21T02:12:12.676Z,43.00
2023-03-21T02:14:44.969Z,41.37
2023-03-21T02:17:36.803Z,42.08
2023-03-21T02:20:32.744Z,40.55
2023-03-21T02:23:22.594Z,38.53
2023-03-21T02:26:11.285Z,39.63
2023-03-21T02:28:53.569Z,41.60
2023-03-21T02:31:45.375Z,41.15
2023-03-21T02:34:39.870Z,42.70
2023-03-21T02:37:37.601Z,38.05
2023-03-21T02:40:12.424Z,36.90
2023-03-21T02:43:00.027Z,36.63
2023-03-21T02:45:32.771Z,36.42
2023-03-21T02:48:25.452Z,35.38
2023-03-21T02:50:53.033Z,35.43
2023-03-21T02:53:26.320Z,34.35
2023-03-21T02:55:58.666Z,35.05
2023-03-21T02:58:32.111Z,37.90
2023-03-21T03:01:02.316Z,34.67
2023-03-21T03:03:35.003Z,36.65
2023-03-21T03:06:08.910Z,34.43
2023-03-21T03:09:12.920Z,34.53
2023-03-21T03:11:48.991Z,32.38
2023-03-21T03:14:44.181Z,32.40
2023-03-21T03:17:21.513Z,31.37
2023-03-21T03:20:17.403Z,35.80
2023-03-21T03:23:14.145Z,33.02
2023-03-21T03:25:50.954Z,31.45
2023-03-21T03:28:24.744Z,30.55
2023-03-21T03:31:08.813Z,31.12
2023-03-21T03:33:31.109Z,31.17
2023-03-21T03:36:06.527Z,29.30
2023-03-21T03:38:37.067Z,29.15
2023-03-21T03:41:13.225Z,31.48
2023-03-21T03:43:48.112Z,30.72
2023-03-21T03:46:21.840Z,32.60
2023-03-21T03:49:01.263Z,29.07
2023-03-21T03:51:46.998Z,29.75
2023-03-21T03:54:20.502Z,27.82
2023-03-21T03:56:52.396Z,29.42
2023-03-21T03:59:26.507Z,29.63
2023-03-21T04:01:57.512Z,28.00
2023-03-21T04:04:30.554Z,27.55
2023-03-21T04:07:02.161Z,32.30
2023-03-21T04:09:43.726Z,28.15
2023-03-21T04:12:07.414Z,26.25
2023-03-21T04:14:44.453Z,26.40
2023-03-21T04:17:12.314Z,27.02
2023-03-21T04:19:43.614Z,27.70
2023-03-21T04:22:16.438Z,26.25
2023-03-21T04:24:47.522Z,28.40
2023-03-21T04:27:18.849Z,27.58
2023-03-21T04:29:49.864Z,27.65
2023-03-21T04:32:21.100Z,24.25
2023-03-21T04:34:53.716Z,24.98
2023-03-21T04:37:25.656Z,24.75
2023-03-21T04:39:56.906Z,26.15
2023-03-21T04:42:28.717Z,25.30
2023-03-21T04:44:59.731Z,23.77
2023-03-21T04:47:31.052Z,22.58
2023-03-21T04:50:02.490Z,25.37
2023-03-21T04:52:35.835Z,25.37
2023-03-21T04:55:06.073Z,23.50
2023-03-21T04:57:37.515Z,21.82
2023-03-21T05:00:14.702Z,22.82
2023-03-21T05:02:46.177Z,22.75
2023-03-21T05:05:17.662Z,24.43
2023-03-21T05:07:49.311Z,24.18
2023-03-21T05:10:23.468Z,23.95
2023-03-21T05:13:01.729Z,23.67
2023-03-21T05:15:32.933Z,22.98
2023-03-21T05:18:05.431Z,23.75
2023-03-21T05:20:36.842Z,24.45
2023-03-21T05:23:10.312Z,24.55
2023-03-21T05:25:42.057Z,22.10
2023-03-21T05:28:12.997Z,24.37
2023-03-21T05:30:44.031Z,22.73
2023-03-21T05:33:15.902Z,22.22
2023-03-21T05:35:46.887Z,22.42
2023-03-21T05:38:18.025Z,21.02
2023-03-21T05:40:53.027Z,21.12
2023-03-21T05:43:24.206Z,20.65
2023-03-21T05:45:56.719Z,19.42
2023-03-21T05:48:27.903Z,20.80
2023-03-21T05:50:59.059Z,20.72
2023-03-21T05:53:30.417Z,19.27
2023-03-21T05:56:01.548Z,19.37
2023-03-21T05:58:32.675Z,18.60
2023-03-21T06:01:03.855Z,18.95
2023-03-21T06:03:35.204Z,19.30
2023-03-21T06:06:08.883Z,23.52
2023-03-21T06:08:40.103Z,17.92
2023-03-21T06:11:13.722Z,18.70
2023-03-21T06:13:44.904Z,18.70
2023-03-21T06:16:16.066Z,20.50
2023-03-21T06:18:47.393Z,19.80
2023-03-21T06:21:18.976Z,19.27
2023-03-21T06:23:52.889Z,23.67
2023-03-21T06:26:24.463Z,18.80
2023-03-21T06:28:56.649Z,19.37
2023-03-21T06:31:27.883Z,20.20
2023-03-21T06:33:59.042Z,19.95
2023-03-21T06:36:29.999Z,20.77
2023-03-21T06:39:01.315Z,19.65
2023-03-21T06:41:32.374Z,19.90
2023-03-21T06:44:03.588Z,20.75
2023-03-21T06:46:34.598Z,19.32
2023-03-21T06:49:05.668Z,19.75
2023-03-21T06:51:36.915Z,19.73
2023-03-21T06:54:07.987Z,18.12
2023-03-21T06:56:39.161Z,19.60
2023-03-21T06:59:10.283Z,18.67
2023-03-21T07:01:41.505Z,19.77
2023-03-21T07:04:13.063Z,21.60
2023-03-21T07:06:44.187Z,18.65
2023-03-21T07:09:15.460Z,22.07
2023-03-21T07:11:46.701Z,19.35
2023-03-21T07:14:18.308Z,18.07
2023-03-21T07:16:49.538Z,19.82
2023-03-21T07:19:20.896Z,19.55
2023-03-21T07:21:51.910Z,20.43
2023-03-21T07:24:22.941Z,18.55
2023-03-21T07:26:53.880Z,19.27
2023-03-21T07:29:26.057Z,19.57
2023-03-21T07:31:57.415Z,17.98
2023-03-21T07:34:29.925Z,18.37
2023-03-21T07:37:01.132Z,19.05
2023-03-21T07:39:33.840Z,18.30
2023-03-21T07:42:04.971Z,18.10
2023-03-21T07:44:36.165Z,19.17
2023-03-21T07:47:08.466Z,18.73
2023-03-21T07:49:40.420Z,19.07
2023-03-21T07:52:12.000Z,22.35
2023-03-21T07:54:43.475Z,18.75
2023-03-21T07:57:15.128Z,18.23
2023-03-21T07:59:46.369Z,18.17
2023-03-21T08:02:19.174Z,18.02
2023-03-21T08:04:50.273Z,18.87
2023-03-21T08:07:21.452Z,17.75
2023-03-21T08:09:52.722Z,17.37
2023-03-21T08:12:23.823Z,17.50
2023-03-21T08:14:55.026Z,23.98
2023-03-21T08:17:26.250Z,19.20
2023-03-21T08:19:58.452Z,18.70
2023-03-21T08:22:29.870Z,20.17
2023-03-21T08:25:00.913Z,18.37
2023-03-21T08:27:33.361Z,18.40
2023-03-21T08:30:04.562Z,19.23
2023-03-21T08:32:36.034Z,19.32
2023-03-21T08:35:10.539Z,18.40
2023-03-21T08:37:51.866Z,20.32
2023-03-21T08:40:23.568Z,18.52
2023-03-21T08:42:55.139Z,19.35
2023-03-21T08:45:26.537Z,19.32
2023-03-21T08:47:58.188Z,19.67
2023-03-21T08:50:31.214Z,18.27
2023-03-21T08:53:02.381Z,17.20
2023-03-21T08:55:44.119Z,17.82
2023-03-21T08:58:15.427Z,18.65
2023-03-21T09:00:46.585Z,17.05
2023-03-21T09:03:19.223Z,18.73
2023-03-21T09:05:53.793Z,19.75
2023-03-21T09:08:25.017Z,18.65
2023-03-21T09:10:59.591Z,19.65
2023-03-21T09:13:30.952Z,16.73
2023-03-21T09:16:02.431Z,17.32
2023-03-21T09:18:53.037Z,18.52
2023-03-21T09:21:24.782Z,16.87
2023-03-21T09:23:58.658Z,20.30
2023-03-21T09:26:29.735Z,17.82
2023-03-21T09:29:02.211Z,18.15
2023-03-21T09:31:33.624Z,17.87
2023-03-21T09:34:05.148Z,17.00
2023-03-21T09:36:36.468Z,17.82
2023-03-21T09:39:07.911Z,18.67
2023-03-21T09:42:15.128Z,16.30
2023-03-21T09:45:00.059Z,17.07
2023-03-21T09:47:33.713Z,18.00
2023-03-21T09:50:14.858Z,17.12
2023-03-21T09:53:01.489Z,16.70
2023-03-21T09:55:36.306Z,18.12
2023-03-21T09:58:35.737Z,16.93
2023-03-21T10:01:25.409Z,16.93
2023-03-21T10:03:57.768Z,16.37
2023-03-21T10:06:32.812Z,17.37
2023-03-21T10:09:07.594Z,16.40
2023-03-21T10:11:54.199Z,17.35
2023-03-21T10:14:36.332Z,17.30
2023-03-21T10:17:32.657Z,16.52
2023-03-21T10:20:31.621Z,16.70
2023-03-21T10:23:05.253Z,16.40
2023-03-21T10:25:50.782Z,16.65
2023-03-21T10:28:27.020Z,16.75
2023-03-21T10:33:33.391Z,16.32
2023-03-21T10:36:06.843Z,17.30
2023-03-21T10:38:39.334Z,16.73
2023-03-21T10:41:11.927Z,16.80
2023-03-21T10:43:46.527Z,17.12
2023-03-21T10:46:25.281Z,16.02
2023-03-21T10:48:57.336Z,18.15
2023-03-21T10:51:39.172Z,17.07
2023-03-21T10:54:12.691Z,16.87
2023-03-21T10:56:48.676Z,17.40
2023-03-21T10:59:22.108Z,18.37
2023-03-21T11:01:56.440Z,17.62
2023-03-21T11:04:32.901Z,17.62
2023-03-21T11:07:07.664Z,17.00
2023-03-21T11:09:57.020Z,17.77
2023-03-21T11:12:33.097Z,18.05
2023-03-21T11:15:22.824Z,17.07
2023-03-21T11:17:56.054Z,18.23
2023-03-21T11:20:26.538Z,18.48
2023-03-21T11:22:58.949Z,18.07
2023-03-21T11:25:41.243Z,17.73
2023-03-21T11:28:17.506Z,17.57
2023-03-21T11:31:03.323Z,17.60
2023-03-21T11:33:39.557Z,18.32
2023-03-21T11:38:43.117Z,18.60
2023-03-21T11:41:18.403Z,18.80
2023-03-21T11:43:51.184Z,18.32
2023-03-21T11:46:27.048Z,19.07
2023-03-21T11:48:59.671Z,18.27
2023-03-21T11:51:39.055Z,20.48
2023-03-21T11:54:36.574Z,18.62
2023-03-21T11:57:33.627Z,20.80
2023-03-21T12:00:17.057Z,19.45
2023-03-21T12:02:56.881Z,21.50
2023-03-21T12:05:36.453Z,22.98
2023-03-21T12:08:21.728Z,21.50
2023-03-21T12:11:06.651Z,20.63
2023-03-21T12:13:59.212Z,20.02
2023-03-21T12:16:54.909Z,20.37
2023-03-21T12:22:16.292Z,20.57
2023-03-21T12:24:59.328Z,19.37
2023-03-21T12:27:48.926Z,19.62
2023-03-21T12:30:34.375Z,19.25
2023-03-21T12:33:14.697Z,20.70
2023-03-21T12:35:50.513Z,20.70
2023-03-21T12:38:34.247Z,19.80
2023-03-21T12:41:19.901Z,20.50
2023-03-21T12:44:08.433Z,20.37
2023-03-21T12:47:06.148Z,20.20
2023-03-21T12:50:05.717Z,19.92
2023-03-21T12:52:42.051Z,19.48
2023-03-21T12:55:29.055Z,20.05
2023-03-21T12:58:05.739Z,20.35
2023-03-21T13:00:42.276Z,21.25
2023-03-21T13:03:27.717Z,21.25
2023-03-21T13:06:00.551Z,20.40
2023-03-21T13:11:05.808Z,21.40
2023-03-21T13:13:54.129Z,20.77
2023-03-21T13:16:41.188Z,20.68
2023-03-21T13:19:25.664Z,22.55
2023-03-21T13:22:20.129Z,21.40
2023-03-21T13:24:53.139Z,21.48
2023-03-21T13:27:35.255Z,21.02
2023-03-21T13:30:08.911Z,20.88
2023-03-21T13:32:42.184Z,21.20
2023-03-21T13:35:19.569Z,20.40
2023-03-21T13:37:55.547Z,21.48
2023-03-21T13:40:29.732Z,20.45
2023-03-21T13:43:01.955Z,20.43
2023-03-21T13:45:38.282Z,21.48
2023-03-21T13:48:11.802Z,20.40
2023-03-21T13:50:56.666Z,20.88
2023-03-21T13:53:29.663Z,21.77
2023-03-21T13:56:22.628Z,21.90
2023-03-21T13:58:56.698Z,21.90
2023-03-21T14:01:44.390Z,21.23
2023-03-21T14:04:22.490Z,20.30
2023-03-21T14:07:01.393Z,21.10
2023-03-21T14:09:34.861Z,20.80
2023-03-21T14:12:08.084Z,21.00
2023-03-21T14:14:50.912Z,20.25
2023-03-21T14:17:29.720Z,21.00
2023-03-21T14:20:03.084Z,20.77
2023-03-21T14:22:34.295Z,21.57
2023-03-21T14:25:08.343Z,21.17
2023-03-21T14:27:39.615Z,21.17
2023-03-21T14:30:12.339Z,21.77
2023-03-21T14:32:44.053Z,21.12
2023-03-21T14:35:15.583Z,22.27
2023-03-21T14:37:48.934Z,21.00
2023-03-21T14:40:25.274Z,21.45
2023-03-21T14:45:32.068Z,21.17
2023-03-21T14:48:18.949Z,22.27
2023-03-21T14:50:59.214Z,21.50
2023-03-21T14:53:35.104Z,21.07
2023-03-21T14:56:21.055Z,21.17
2023-03-21T14:58:52.905Z,20.25
2023-03-21T15:01:36.168Z,21.17
2023-03-21T15:04:08.878Z,20.80
2023-03-21T15:06:42.462Z,21.12
2023-03-21T15:09:15.792Z,22.15
2023-03-21T15:11:53.659Z,21.42
2023-03-21T15:14:32.807Z,21.57
2023-03-21T15:17:06.259Z,21.73
2023-03-21T15:19:40.193Z,21.30
2023-03-21T15:22:19.420Z,21.90
2023-03-21T15:24:53.616Z,21.50
2023-03-21T15:27:27.046Z,21.62
2023-03-21T15:29:58.089Z,22.93
2023-03-21T15:32:30.833Z,21.90
2023-03-21T15:35:10.268Z,23.60
2023-03-21T15:37:41.577Z,21.73
2023-03-21T15:40:20.894Z,22.82
2023-03-21T15:42:53.295Z,23.55
2023-03-21T15:45:36.702Z,24.00
2023-03-21T15:48:20.850Z,23.57
2023-03-21T15:51:29.622Z,23.65
2023-03-21T15:54:06.939Z,22.48
2023-03-21T15:56:42.454Z,23.57
2023-03-21T15:59:18.669Z,23.27
2023-03-21T16:01:53.833Z,23.45
2023-03-21T16:04:32.183Z,24.12
2023-03-21T16:07:14.636Z,24.87
2023-03-21T16:09:51.076Z,24.75
2023-03-21T16:12:24.830Z,25.05
2023-03-21T16:15:00.801Z,24.85
2023-03-21T16:17:54.602Z,25.85
2023-03-21T16:20:34.209Z,25.23
2023-03-21T16:23:05.597Z,24.72
2023-03-21T16:25:42.064Z,24.95
2023-03-21T16:28:19.820Z,23.63
2023-03-21T16:30:50.965Z,24.67
2023-03-21T16:33:26.211Z,25.62
2023-03-21T16:35:58.698Z,24.25
2023-03-21T16:38:30.961Z,25.25
2023-03-21T16:41:04.552Z,25.57
2023-03-21T16:43:37.811Z,25.43
2023-03-21T16:46:09.475Z,26.15
2023-03-21T16:48:40.687Z,26.45
2023-03-21T16:51:21.324Z,27.25
2023-03-21T16:53:55.294Z,27.80
2023-03-21T16:56:31.306Z,28.15
2023-03-21T16:59:02.238Z,29.05
2023-03-21T17:01:33.276Z,27.80
2023-03-21T17:04:04.292Z,28.42
2023-03-21T17:06:38.569Z,29.80
2023-03-21T17:09:13.031Z,30.10
2023-03-21T17:11:43.490Z,30.32
2023-03-21T17:14:20.541Z,30.43
2023-03-21T17:16:51.903Z,29.45
2023-03-21T17:19:29.205Z,29.48
2023-03-21T17:22:00.117Z,29.95
2023-03-21T17:24:31.479Z,31.50
2023-03-21T17:27:03.602Z,29.95
2023-03-21T17:29:34.629Z,31.17
2023-03-21T17:32:05.735Z,31.15
2023-03-21T17:34:36.675Z,29.72
2023-03-21T17:37:07.932Z,31.17
2023-03-21T17:39:39.164Z,30.90
2023-03-21T17:42:12.436Z,31.42
2023-03-21T17:44:43.423Z,32.45
2023-03-21T17:47:16.902Z,31.02
2023-03-21T17:49:47.766Z,30.17
2023-03-21T17:52:18.938Z,31.10
2023-03-21T17:54:52.019Z,29.27
2023-03-21T17:57:22.998Z,29.72
2023-03-21T17:59:54.015Z,29.92
2023-03-21T18:02:24.222Z,28.77
2023-03-21T18:04:55.212Z,30.32
2023-03-21T18:08:01.981Z,30.27
2023-03-21T18:09:59.288Z,29.80
2023-03-21T18:12:30.418Z,28.17
2023-03-21T18:15:04.108Z,29.95
2023-03-21T18:17:35.196Z,29.65
2023-03-21T18:20:09.887Z,29.37
2023-03-21T18:22:43.512Z,29.57
2023-03-21T18:25:15.624Z,29.00
2023-03-21T18:28:09.625Z,28.87
2023-03-21T18:30:56.524Z,30.27
2023-03-21T18:32:58.904Z,30.80
2023-03-21T18:35:34.089Z,29.15
2023-03-21T18:38:05.134Z,29.72
2023-03-21T18:40:36.424Z,31.05
2023-03-21T18:45:40.456Z,30.57
2023-03-21T18:48:12.859Z,30.05
2023-03-21T18:50:47.985Z,31.48
2023-03-21T18:53:19.067Z,30.27
2023-03-21T18:55:52.423Z,31.37
2023-03-21T18:58:26.246Z,30.25
2023-03-21T19:01:06.038Z,30.75
2023-03-21T19:03:42.949Z,29.98
2023-03-21T19:06:12.105Z,30.68
2023-03-21T19:08:43.044Z,30.90
2023-03-21T19:11:14.141Z,30.55
2023-03-21T19:13:49.718Z,31.23
2023-03-21T19:16:26.912Z,30.92
2023-03-21T19:18:57.096Z,29.42
2023-03-21T19:21:28.897Z,30.43
2023-03-21T19:24:29.485Z,30.40
2023-03-21T19:26:38.686Z,31.20
2023-03-21T19:29:13.564Z,29.48
2023-03-21T19:31:46.630Z,30.40
2023-03-21T19:34:22.532Z,31.30
2023-03-21T19:36:54.635Z,31.00
2023-03-21T19:39:25.051Z,30.20
2023-03-21T19:42:15.166Z,30.97
2023-03-21T19:44:33.856Z,30.72
2023-03-21T19:47:04.806Z,31.42
2023-03-21T19:50:27.327Z,30.80
2023-03-21T19:52:15.904Z,31.00
2023-03-21T19:54:46.427Z,31.27
2023-03-21T19:57:19.820Z,31.65
2023-03-21T19:59:55.133Z,33.02
2023-03-21T20:02:39.901Z,30.77
2023-03-21T20:04:58.360Z,32.03
2023-03-21T20:07:29.316Z,31.75
2023-03-21T20:10:00.818Z,31.87
2023-03-21T20:12:33.188Z,31.85
2023-03-21T20:15:16.479Z,31.40
2023-03-21T20:17:37.835Z,32.33
2023-03-21T20:20:13.113Z,32.13
2023-03-21T20:23:05.813Z,32.65
2023-03-21T20:25:17.110Z,32.95
2023-03-21T20:28:09.328Z,32.17
2023-03-21T20:30:22.607Z,32.42
2023-03-21T20:32:53.548Z,33.33
2023-03-21T20:35:47.939Z,33.78
2023-03-21T20:37:57.485Z,32.80
2023-03-21T20:40:28.555Z,32.93
2023-03-21T20:43:03.041Z,32.88
2023-03-21T20:45:32.010Z,33.15
2023-03-21T20:48:03.207Z,32.88
2023-03-21T20:50:39.146Z,34.25
2023-03-21T20:53:07.784Z,33.67
2023-03-21T20:55:39.324Z,33.02
2023-03-21T20:58:36.519Z,33.75
2023-03-21T21:00:45.508Z,32.63
2023-03-21T21:03:20.960Z,33.73
2023-03-21T21:05:54.075Z,33.05
2023-03-21T21:08:29.276Z,32.60
2023-03-21T21:11:53.487Z,33.00
2023-03-21T21:13:33.939Z,33.45
2023-03-21T21:16:06.179Z,32.65
2023-03-21T21:18:37.705Z,33.63
2023-03-21T21:21:10.170Z,32.35
2023-03-21T21:23:43.510Z,32.95
2023-03-21T21:26:15.275Z,33.30
2023-03-21T21:28:47.618Z,34.08
2023-03-21T21:31:19.994Z,32.28
2023-03-21T21:33:51.344Z,33.33
2023-03-21T21:36:23.709Z,33.23
2023-03-21T21:38:54.629Z,35.40
2023-03-21T21:41:26.885Z,34.38
2023-03-21T21:43:57.912Z,34.10
2023-03-21T21:46:30.213Z,34.65
2023-03-21T21:49:02.475Z,35.33
2023-03-21T21:51:34.799Z,33.58
2023-03-21T21:54:07.481Z,34.45
2023-03-21T21:56:38.276Z,35.00
2023-03-21T21:59:10.083Z,34.53
2023-03-21T22:01:44.720Z,36.13
2023-03-21T22:04:15.619Z,34.03
2023-03-21T22:06:47.943Z,35.68
2023-03-21T22:09:18.960Z,34.40
2023-03-21T22:11:49.930Z,36.13
2023-03-21T22:14:22.347Z,35.35
2023-03-21T22:16:53.316Z,34.90
2023-03-21T22:19:24.467Z,35.60
2023-03-21T22:21:57.124Z,37.38
2023-03-21T22:24:28.855Z,37.28
2023-03-21T22:27:01.025Z,42.38
2023-03-21T22:29:34.360Z,44.65
2023-03-21T22:32:05.365Z,43.75
2023-03-21T22:34:36.833Z,40.75
2023-03-21T22:37:07.635Z,38.83
2023-03-21T22:39:38.578Z,38.63
2023-03-21T22:42:09.519Z,38.38
2023-03-21T22:44:40.493Z,38.50
2023-03-21T22:47:13.199Z,38.58
2023-03-21T22:49:45.330Z,38.83
2023-03-21T22:52:16.332Z,44.30
2023-03-21T22:54:47.659Z,37.40
2023-03-21T22:57:18.970Z,37.73
2023-03-21T22:59:50.106Z,36.53
2023-03-21T23:02:21.540Z,37.78
2023-03-21T23:04:52.332Z,36.90
2023-03-21T23:07:23.124Z,37.35
2023-03-21T23:09:54.186Z,36.50
2023-03-21T23:12:25.016Z,36.75
2023-03-21T23:14:55.844Z,36.93
2023-03-21T23:17:26.929Z,36.65
2023-03-21T23:19:57.732Z,36.95
2023-03-21T23:22:33.787Z,36.13
2023-03-21T23:25:04.887Z,36.25
2023-03-21T23:27:36.498Z,35.90
2023-03-21T23:30:08.706Z,36.00
2023-03-21T23:32:39.486Z,36.17
2023-03-21T23:35:11.757Z,36.73
2023-03-21T23:37:43.818Z,34.90
2023-03-21T23:40:15.877Z,35.00
2023-03-21T23:42:46.933Z,35.48
2023-03-21T23:45:17.958Z,35.90
2023-03-21T23:47:48.920Z,34.63
2023-03-21T23:50:19.880Z,35.83
2023-03-21T23:52:50.677Z,35.65
2023-03-21T23:55:22.751Z,35.75
2023-03-21T23:57:54.823Z,36.42
